Time,TemperatureF,DewpointF,PressureIn,WindDirection,WindDirectionDegrees,WindSpeedMPH,WindSpeedGustMPH,Humidity,HourlyPrecipIn,Conditions,Clouds,dailyrainin,SoftwareType,DateUTC
2013-04-29 00:00:00,21.0,7.0,-100.00,West,265,1.0,7.0,55,0.00,,,0.00,,2013-04-29 08:00:00,
2013-04-29 00:32:00,21.0,7.0,-100.00,West,265,1.0,7.0,55,0.00,,,0.00,,2013-04-29 08:32:00,
2013-04-29 00:42:00,21.0,7.0,-100.00,West,265,1.0,7.0,55,0.00,,,0.00,,2013-04-29 08:42:00,
2013-04-29 00:52:00,21.0,7.0,-100.00,West,265,1.0,7.0,55,0.00,,,0.00,,2013-04-29 08:52:00,
2013-04-29 01:00:00,20.0,8.0,-100.00,West,276,2.0,6.0,58,0.00,,,0.00,,2013-04-29 09:00:00,
2013-04-29 01:33:00,20.0,8.0,-100.00,West,276,2.0,6.0,58,0.00,,,0.00,,2013-04-29 09:33:00,
2013-04-29 01:42:00,20.0,8.0,-100.00,West,276,2.0,6.0,58,0.00,,,0.00,,2013-04-29 09:42:00,
2013-04-29 01:53:00,20.0,8.0,-100.00,West,276,2.0,6.0,58,0.00,,,0.00,,2013-04-29 09:53:00,
2013-04-29 02:00:00,19.0,8.0,-100.00,SW,226,3.0,7.0,62,0.00,,,0.00,,2013-04-29 10:00:00,
2013-04-29 02:32:00,19.0,8.0,-100.00,SW,226,3.0,7.0,62,0.00,,,0.00,,2013-04-29 10:32:00,
2013-04-29 02:42:00,19.0,8.0,-100.00,SW,226,3.0,7.0,62,0.00,,,0.00,,2013-04-29 10:42:00,
2013-04-29 02:52:00,19.0,8.0,-100.00,SW,226,3.0,7.0,62,0.00,,,0.00,,2013-04-29 10:52:00,
2013-04-29 03:00:00,20.0,8.0,-100.00,WSW,241,5.0,11.0,59,0.00,,,0.00,,2013-04-29 11:00:00,
2013-04-29 03:32:00,20.0,8.0,-100.00,WSW,241,5.0,11.0,59,0.00,,,0.00,,2013-04-29 11:32:00,
2013-04-29 03:42:00,20.0,8.0,-100.00,WSW,241,5.0,11.0,59,0.00,,,0.00,,2013-04-29 11:42:00,
2013-04-29 03:52:00,20.0,8.0,-100.00,WSW,241,5.0,11.0,59,0.00,,,0.00,,2013-04-29 11:52:00,
2013-04-29 04:00:00,19.0,8.0,-100.00,SW,236,5.0,10.0,61,0.00,,,0.00,,2013-04-29 12:00:00,
2013-04-29 04:32:00,19.0,8.0,-100.00,SW,236,5.0,10.0,61,0.00,,,0.00,,2013-04-29 12:32:00,
2013-04-29 04:42:00,19.0,8.0,-100.00,SW,236,5.0,10.0,61,0.00,,,0.00,,2013-04-29 12:42:00,
2013-04-29 04:52:00,19.0,8.0,-100.00,SW,236,5.0,10.0,61,0.00,,,0.00,,2013-04-29 12:52:00,
2013-04-29 05:00:00,18.0,8.0,-100.00,SW,225,4.0,12.0,65,0.00,,,0.00,,2013-04-29 13:00:00,
2013-04-29 05:32:00,18.0,8.0,-100.00,SW,225,4.0,12.0,65,0.00,,,0.00,,2013-04-29 13:32:00,
2013-04-29 05:42:00,18.0,8.0,-100.00,SW,225,4.0,12.0,65,0.00,,,0.00,,2013-04-29 13:42:00,
2013-04-29 05:52:00,18.0,8.0,-100.00,SW,225,4.0,12.0,65,0.00,,,0.00,,2013-04-29 13:52:00,
2013-04-29 06:00:00,19.0,10.0,-100.00,SW,228,4.0,10.0,68,0.00,,,0.00,,2013-04-29 14:00:00,
2013-04-29 06:32:00,19.0,10.0,-100.00,SW,228,4.0,10.0,68,0.00,,,0.00,,2013-04-29 14:32:00,
2013-04-29 06:42:00,19.0,10.0,-100.00,SW,228,4.0,10.0,68,0.00,,,0.00,,2013-04-29 14:42:00,
2013-04-29 06:52:00,19.0,10.0,-100.00,SW,228,4.0,10.0,68,0.00,,,0.00,,2013-04-29 14:52:00,
2013-04-29 07:00:00,19.0,11.0,-100.00,SW,231,5.0,12.0,70,0.00,,,0.00,,2013-04-29 15:00:00,
2013-04-29 07:33:00,19.0,11.0,-100.00,SW,231,5.0,12.0,70,0.00,,,0.00,,2013-04-29 15:33:00,
2013-04-29 07:43:00,19.0,11.0,-100.00,SW,231,5.0,12.0,70,0.00,,,0.00,,2013-04-29 15:43:00,
2013-04-29 07:53:00,19.0,11.0,-100.00,SW,231,5.0,12.0,70,0.00,,,0.00,,2013-04-29 15:53:00,
2013-04-29 08:00:00,22.0,13.0,-100.00,SW,235,4.0,10.0,69,0.00,,,0.00,,2013-04-29 16:00:00,
2013-04-29 08:33:00,22.0,13.0,-100.00,SW,235,4.0,10.0,69,0.00,,,0.00,,2013-04-29 16:33:00,
2013-04-29 08:42:00,22.0,13.0,-100.00,SW,235,4.0,10.0,69,0.00,,,0.00,,2013-04-29 16:42:00,
2013-04-29 08:52:00,22.0,13.0,-100.00,SW,235,4.0,10.0,69,0.00,,,0.00,,2013-04-29 16:52:00,
2013-04-29 09:00:00,23.0,13.0,-100.00,SW,227,4.0,10.0,66,0.00,,,0.00,,2013-04-29 17:00:00,
2013-04-29 09:32:00,23.0,13.0,-100.00,SW,227,4.0,10.0,66,0.00,,,0.00,,2013-04-29 17:32:00,
2013-04-29 09:42:00,23.0,13.0,-100.00,SW,227,4.0,10.0,66,0.00,,,0.00,,2013-04-29 17:42:00,
2013-04-29 09:52:00,23.0,13.0,-100.00,SW,227,4.0,10.0,66,0.00,,,0.00,,2013-04-29 17:52:00,
2013-04-29 10:00:00,23.0,16.0,-100.00,SW,225,4.0,11.0,74,0.00,,,0.00,,2013-04-29 18:00:00,
2013-04-29 10:32:00,23.0,16.0,-100.00,SW,225,4.0,11.0,74,0.00,,,0.00,,2013-04-29 18:32:00,
2013-04-29 10:42:00,23.0,16.0,-100.00,SW,225,4.0,11.0,74,0.00,,,0.00,,2013-04-29 18:42:00,
2013-04-29 10:52:00,23.0,16.0,-100.00,SW,225,4.0,11.0,74,0.00,,,0.00,,2013-04-29 18:52:00,
2013-04-29 11:00:00,24.0,15.0,-100.00,SW,222,4.0,10.0,69,0.00,,,0.00,,2013-04-29 19:00:00,
2013-04-29 11:32:00,24.0,15.0,-100.00,SW,222,4.0,10.0,69,0.00,,,0.00,,2013-04-29 19:32:00,
2013-04-29 11:42:00,24.0,15.0,-100.00,SW,222,4.0,10.0,69,0.00,,,0.00,,2013-04-29 19:42:00,
2013-04-29 11:52:00,24.0,15.0,-100.00,SW,222,4.0,10.0,69,0.00,,,0.00,,2013-04-29 19:52:00,
2013-04-29 12:00:00,23.0,17.0,-100.00,SW,229,6.0,12.0,77,0.00,,,0.00,,2013-04-29 20:00:00,
2013-04-29 12:32:00,23.0,17.0,-100.00,SW,229,6.0,12.0,77,0.00,,,0.00,,2013-04-29 20:32:00,
2013-04-29 12:42:00,23.0,17.0,-100.00,SW,229,6.0,12.0,77,0.00,,,0.00,,2013-04-29 20:42:00,
2013-04-29 12:52:00,23.0,17.0,-100.00,SW,229,6.0,12.0,77,0.00,,,0.00,,2013-04-29 20:52:00,
2013-04-29 13:00:00,25.0,19.0,-100.00,WSW,237,7.0,14.0,76,0.00,,,0.00,,2013-04-29 21:00:00,
2013-04-29 13:33:00,25.0,19.0,-100.00,WSW,237,7.0,14.0,76,0.00,,,0.00,,2013-04-29 21:33:00,
2013-04-29 13:43:00,25.0,19.0,-100.00,WSW,237,7.0,14.0,76,0.00,,,0.00,,2013-04-29 21:43:00,
2013-04-29 13:53:00,25.0,19.0,-100.00,WSW,237,7.0,14.0,76,0.00,,,0.00,,2013-04-29 21:53:00,
2013-04-29 14:00:00,24.0,19.0,-100.00,SW,233,5.0,13.0,81,0.00,,,0.00,,2013-04-29 22:00:00,
2013-04-29 14:32:00,24.0,19.0,-100.00,SW,233,5.0,13.0,81,0.00,,,0.00,,2013-04-29 22:32:00,
2013-04-29 14:42:00,24.0,19.0,-100.00,SW,233,5.0,13.0,81,0.00,,,0.00,,2013-04-29 22:42:00,
2013-04-29 14:52:00,24.0,19.0,-100.00,SW,233,5.0,13.0,81,0.00,,,0.00,,2013-04-29 22:52:00,
2013-04-29 15:00:00,26.0,20.0,-100.00,SW,236,6.0,12.0,77,0.00,,,0.00,,2013-04-29 23:00:00,
2013-04-29 15:32:00,26.0,20.0,-100.00,SW,236,6.0,12.0,77,0.00,,,0.00,,2013-04-29 23:32:00,
2013-04-29 15:42:00,26.0,20.0,-100.00,SW,236,6.0,12.0,77,0.00,,,0.00,,2013-04-29 23:42:00,
2013-04-29 15:52:00,26.0,20.0,-100.00,SW,236,6.0,12.0,77,0.00,,,0.00,,2013-04-29 23:52:00,
2013-04-29 16:00:00,27.0,20.0,-100.00,SW,228,5.0,12.0,75,0.01,,,0.01,,2013-04-30 00:00:00,
2013-04-29 16:32:00,27.0,20.0,-100.00,SW,228,5.0,12.0,75,0.01,,,0.01,,2013-04-30 00:32:00,
2013-04-29 16:42:00,27.0,20.0,-100.00,SW,228,5.0,12.0,75,0.01,,,0.01,,2013-04-30 00:42:00,
2013-04-29 16:52:00,27.0,20.0,-100.00,SW,228,5.0,12.0,75,0.01,,,0.01,,2013-04-30 00:52:00,
2013-04-29 17:00:00,25.0,20.0,-100.00,SW,223,5.0,12.0,81,0.00,,,0.01,,2013-04-30 01:00:00,
2013-04-29 17:32:00,25.0,20.0,-100.00,SW,223,5.0,12.0,81,0.00,,,0.01,,2013-04-30 01:32:00,
2013-04-29 17:42:00,25.0,20.0,-100.00,SW,223,5.0,12.0,81,0.00,,,0.01,,2013-04-30 01:42:00,
2013-04-29 17:52:00,25.0,20.0,-100.00,SW,223,5.0,12.0,81,0.00,,,0.01,,2013-04-30 01:52:00,
2013-04-29 18:00:00,24.0,18.0,-100.00,WSW,251,5.0,12.0,79,0.00,,,0.01,,2013-04-30 02:00:00,
2013-04-29 18:32:00,24.0,18.0,-100.00,WSW,251,5.0,12.0,79,0.00,,,0.01,,2013-04-30 02:32:00,
2013-04-29 18:42:00,24.0,18.0,-100.00,WSW,251,5.0,12.0,79,0.00,,,0.01,,2013-04-30 02:42:00,
2013-04-29 18:51:00,24.0,18.0,-100.00,WSW,251,5.0,12.0,79,0.00,,,0.01,,2013-04-30 02:51:00,
2013-04-29 19:00:00,25.0,20.0,-100.00,SW,230,6.0,13.0,80,0.00,,,0.01,,2013-04-30 03:00:00,
2013-04-29 19:33:00,25.0,20.0,-100.00,SW,230,6.0,13.0,80,0.00,,,0.01,,2013-04-30 03:33:00,
2013-04-29 19:43:00,25.0,20.0,-100.00,SW,230,6.0,13.0,80,0.00,,,0.01,,2013-04-30 03:43:00,
2013-04-29 19:52:00,25.0,20.0,-100.00,SW,230,6.0,13.0,80,0.00,,,0.01,,2013-04-30 03:52:00,
2013-04-29 20:00:00,24.0,20.0,-100.00,SW,232,3.0,9.0,86,0.00,,,0.01,,2013-04-30 04:00:00,
2013-04-29 20:32:00,24.0,20.0,-100.00,SW,232,3.0,9.0,86,0.00,,,0.01,,2013-04-30 04:32:00,
2013-04-29 20:42:00,24.0,20.0,-100.00,SW,232,3.0,9.0,86,0.00,,,0.01,,2013-04-30 04:42:00,
2013-04-29 20:52:00,24.0,20.0,-100.00,SW,232,3.0,9.0,86,0.00,,,0.01,,2013-04-30 04:52:00,
2013-04-29 21:00:00,23.0,20.0,-100.00,SW,233,2.0,9.0,89,0.00,,,0.01,,2013-04-30 05:00:00,
2013-04-29 21:31:00,23.0,20.0,-100.00,SW,233,2.0,9.0,89,0.00,,,0.01,,2013-04-30 05:31:00,
2013-04-29 21:42:00,23.0,20.0,-100.00,SW,233,2.0,9.0,89,0.00,,,0.01,,2013-04-30 05:42:00,
2013-04-29 21:51:00,23.0,20.0,-100.00,SW,233,2.0,9.0,89,0.00,,,0.01,,2013-04-30 05:51:00,
2013-04-29 22:00:00,22.0,20.0,-100.00,SW,216,2.0,6.0,91,0.00,,,0.01,,2013-04-30 06:00:00,
2013-04-29 22:32:00,22.0,20.0,-100.00,SW,216,2.0,6.0,91,0.00,,,0.01,,2013-04-30 06:32:00,
2013-04-29 22:42:00,22.0,20.0,-100.00,SW,216,2.0,6.0,91,0.00,,,0.01,,2013-04-30 06:42:00,
2013-04-29 22:52:00,22.0,20.0,-100.00,SW,216,2.0,6.0,91,0.00,,,0.01,,2013-04-30 06:52:00,
2013-04-29 23:00:00,22.0,20.0,-100.00,SW,224,2.0,7.0,91,0.00,,,0.01,,2013-04-30 07:00:00,
2013-04-29 23:32:00,22.0,20.0,-100.00,SW,224,2.0,7.0,91,0.00,,,0.01,,2013-04-30 07:32:00,
2013-04-29 23:42:00,22.0,20.0,-100.00,SW,224,2.0,7.0,91,0.00,,,0.01,,2013-04-30 07:42:00,
2013-04-29 23:52:00,22.0,20.0,-100.00,SW,224,2.0,7.0,91,0.00,,,0.01,,2013-04-30 07:52:00,